createdAt,value
2023-01-19T00:00:29.614Z,100136.06
2023-01-19T00:02:56.311Z,100145.41
2023-01-19T00:05:22.799Z,100143.81
2023-01-19T00:07:49.356Z,100143.00
2023-01-19T00:10:16.325Z,100136.13
2023-01-19T00:12:42.884Z,100130.91
2023-01-19T00:15:09.793Z,100143.75
2023-01-19T00:17:36.237Z,100128.34
2023-01-19T00:20:03.988Z,100128.34
2023-01-19T00:22:30.509Z,100143.75
2023-01-19T00:24:56.945Z,100145.41
2023-01-19T00:27:23.443Z,100153.28
2023-01-19T00:29:49.886Z,100148.44
2023-01-19T00:32:17.863Z,100140.09
2023-01-19T00:34:49.336Z,100139.50
2023-01-19T00:37:17.362Z,100143.78
2023-01-19T00:39:43.859Z,100160.94
2023-01-19T00:42:32.217Z,100144.78
2023-01-19T00:44:58.757Z,100155.00
2023-01-19T00:47:25.207Z,100146.53
2023-01-19T00:49:51.763Z,100147.50
2023-01-19T00:52:18.197Z,100133.88
2023-01-19T00:54:44.630Z,100128.72
2023-01-19T00:57:11.135Z,100144.06
2023-01-19T00:59:37.579Z,100138.91
2023-01-19T01:02:04.143Z,100135.44
2023-01-19T01:04:30.983Z,100131.88
2023-01-19T01:06:57.502Z,100140.34
2023-01-19T01:09:24.280Z,100126.50
2023-01-19T01:11:50.716Z,100123.84
2023-01-19T01:14:18.221Z,100118.59
2023-01-19T01:16:44.758Z,100129.63
2023-01-19T01:19:11.339Z,100133.91
2023-01-19T01:21:37.799Z,100131.34
2023-01-19T01:24:05.039Z,100126.34
2023-01-19T01:26:31.507Z,100128.25
2023-01-19T01:28:58.025Z,100133.56
2023-01-19T01:31:24.495Z,100133.69
2023-01-19T01:33:50.971Z,100132.06
2023-01-19T01:36:20.786Z,100136.28
2023-01-19T01:38:47.250Z,100138.84
2023-01-19T01:41:14.007Z,100136.28
2023-01-19T01:43:42.675Z,100141.41
2023-01-19T01:46:09.273Z,100139.66
2023-01-19T01:48:38.437Z,100146.47
2023-01-19T01:51:27.035Z,100149.84
2023-01-19T01:54:21.561Z,100144.63
2023-01-19T01:56:51.439Z,100143.66
2023-01-19T01:59:34.643Z,100140.09
2023-01-19T02:02:48.833Z,100134.94
2023-01-19T02:05:21.051Z,100145.91
2023-01-19T02:08:21.825Z,100142.34
2023-01-19T02:11:07.727Z,100143.06
2023-01-19T02:13:39.947Z,100143.88
2023-01-19T02:16:08.595Z,100147.19
2023-01-19T02:18:35.524Z,100151.34
2023-01-19T02:21:18.968Z,100149.38
2023-01-19T02:23:54.447Z,100154.41
2023-01-19T02:26:31.084Z,100156.81
2023-01-19T02:29:00.408Z,100148.13
2023-01-19T02:31:28.925Z,100157.47
2023-01-19T02:33:56.515Z,100163.34
2023-01-19T02:36:28.759Z,100163.31
2023-01-19T02:38:59.044Z,100166.66
2023-01-19T02:41:30.981Z,100170.72
2023-01-19T02:43:58.896Z,100176.63
2023-01-19T02:46:25.802Z,100182.56
2023-01-19T02:48:52.261Z,100183.41
2023-01-19T02:51:24.056Z,100185.97
2023-01-19T02:54:16.269Z,100177.41
2023-01-19T02:56:51.202Z,100194.56
2023-01-19T02:59:40.512Z,100194.56
2023-01-19T03:02:19.871Z,100193.66
2023-01-19T03:05:28.210Z,100200.47
2023-01-19T03:08:03.490Z,100210.72
2023-01-19T03:10:49.170Z,100203.88
2023-01-19T03:13:32.917Z,100211.63
2023-01-19T03:16:12.256Z,100216.66
2023-01-19T03:18:42.900Z,100204.66
2023-01-19T03:21:10.771Z,100197.78
2023-01-19T03:23:41.481Z,100198.63
2023-01-19T03:26:13.106Z,100207.25
2023-01-19T03:28:42.809Z,100210.66
2023-01-19T03:31:15.230Z,100210.72
2023-01-19T03:33:46.188Z,100204.66
2023-01-19T03:36:19.761Z,100213.97
2023-01-19T03:38:48.935Z,100220.84
2023-01-19T03:41:17.687Z,100218.25
2023-01-19T03:43:46.569Z,100219.09
2023-01-19T03:46:17.370Z,100218.25
2023-01-19T03:48:45.760Z,100221.69
2023-01-19T03:51:14.323Z,100229.47
2023-01-19T03:53:41.623Z,100231.22
2023-01-19T03:56:18.150Z,100228.75
2023-01-19T03:58:45.042Z,100230.53
2023-01-19T04:01:11.645Z,100239.19
2023-01-19T04:03:38.200Z,100262.34
2023-01-19T04:06:04.780Z,100259.88
2023-01-19T04:08:32.535Z,100259.13
2023-01-19T04:10:59.010Z,100255.81
2023-01-19T04:13:28.143Z,100253.31
2023-01-19T04:15:54.628Z,100252.56
2023-01-19T04:18:21.134Z,100257.00
2023-01-19T04:20:47.548Z,100253.66
2023-01-19T04:23:13.987Z,100258.00
2023-01-19T04:25:40.445Z,100245.28
2023-01-19T04:28:06.911Z,100246.28
2023-01-19T04:30:33.337Z,100245.53
2023-01-19T04:33:00.285Z,100240.56
2023-01-19T04:35:27.038Z,100250.84
2023-01-19T04:37:53.421Z,100262.84
2023-01-19T04:40:19.989Z,100264.63
2023-01-19T04:42:47.068Z,100272.34
2023-01-19T04:45:13.978Z,100272.41
2023-01-19T04:47:42.612Z,100270.72
2023-01-19T04:50:10.570Z,100275.91
2023-01-19T04:52:37.080Z,100279.34
2023-01-19T04:55:05.798Z,100275.09
2023-01-19T04:57:32.415Z,100275.13
2023-01-19T04:59:58.911Z,100281.16
2023-01-19T05:02:25.935Z,100294.00
2023-01-19T05:04:52.438Z,100294.00
2023-01-19T05:07:18.910Z,100297.41
2023-01-19T05:09:45.709Z,100296.50
2023-01-19T05:12:12.289Z,100308.50
2023-01-19T05:14:38.823Z,100309.31
2023-01-19T05:17:05.292Z,100315.28
2023-01-19T05:19:31.783Z,100312.69
2023-01-19T05:21:58.256Z,100314.41
2023-01-19T05:24:24.766Z,100310.94
2023-01-19T05:26:51.190Z,100320.28
2023-01-19T05:29:17.625Z,100307.50
2023-01-19T05:31:45.172Z,100317.78
2023-01-19T05:34:12.165Z,100317.66
2023-01-19T05:36:38.835Z,100315.84
2023-01-19T05:39:05.281Z,100319.25
2023-01-19T05:41:31.868Z,100326.03
2023-01-19T05:43:58.344Z,100331.09
2023-01-19T05:46:25.334Z,100341.31
2023-01-19T05:48:51.747Z,100354.97
2023-01-19T05:51:18.203Z,100338.59
2023-01-19T05:53:44.616Z,100336.59
2023-01-19T05:56:11.640Z,100340.75
2023-01-19T05:58:41.451Z,100349.16
2023-01-19T06:01:10.090Z,100345.59
2023-01-19T06:03:37.305Z,100348.97
2023-01-19T06:06:04.135Z,100349.88
2023-01-19T06:08:30.992Z,100355.13
2023-01-19T06:10:57.512Z,100357.06
2023-01-19T06:13:24.055Z,100358.06
2023-01-19T06:15:57.421Z,100369.25
2023-01-19T06:18:23.933Z,100370.25
2023-01-19T06:20:52.122Z,100378.00
2023-01-19T06:23:18.580Z,100392.59
2023-01-19T06:25:44.991Z,100397.66
2023-01-19T06:28:11.390Z,100384.66
2023-01-19T06:30:37.824Z,100401.72
2023-01-19T06:33:04.256Z,100400.81
2023-01-19T06:35:30.756Z,100417.06
2023-01-19T06:37:57.191Z,100421.25
2023-01-19T06:40:23.662Z,100417.75
2023-01-19T06:42:50.213Z,100432.19
2023-01-19T06:45:16.701Z,100419.25
2023-01-19T06:47:43.143Z,100418.41
2023-01-19T06:50:10.120Z,100424.41
2023-01-19T06:52:42.302Z,100421.91
2023-01-19T06:55:10.955Z,100431.34
2023-01-19T06:57:38.868Z,100429.72
2023-01-19T07:00:08.130Z,100432.34
2023-01-19T07:02:35.736Z,100433.22
2023-01-19T07:05:02.264Z,100431.56
2023-01-19T07:07:28.737Z,100439.28
2023-01-19T07:09:55.173Z,100441.97
2023-01-19T07:12:22.975Z,100448.84
2023-01-19T07:14:49.734Z,100457.53
2023-01-19T07:17:16.468Z,100453.38
2023-01-19T07:19:42.947Z,100458.63
2023-01-19T07:22:11.255Z,100456.22
2023-01-19T07:24:38.074Z,100468.28
2023-01-19T07:27:05.361Z,100469.25
2023-01-19T07:29:31.862Z,100475.34
2023-01-19T07:31:58.323Z,100473.75
2023-01-19T07:34:24.747Z,100480.63
2023-01-19T07:36:51.210Z,100485.81
2023-01-19T07:39:17.643Z,100486.66
2023-01-19T07:41:44.153Z,100495.16
2023-01-19T07:44:10.614Z,100495.97
2023-01-19T07:46:37.032Z,100495.06
2023-01-19T07:49:03.623Z,100498.34
2023-01-19T07:51:30.083Z,100508.47
2023-01-19T07:53:56.614Z,100511.81
2023-01-19T07:56:24.263Z,100518.63
2023-01-19T07:58:52.373Z,100522.06
2023-01-19T08:01:19.115Z,100521.25
2023-01-19T08:03:47.734Z,100529.00
2023-01-19T08:06:27.741Z,100531.63
2023-01-19T08:08:54.210Z,100540.25
2023-01-19T08:11:20.654Z,100541.19
2023-01-19T08:13:47.128Z,100557.47
2023-01-19T08:16:13.678Z,100557.53
2023-01-19T08:18:40.175Z,100555.91
2023-01-19T08:21:06.687Z,100562.78
2023-01-19T08:23:33.336Z,100561.94
2023-01-19T08:25:59.929Z,100559.44
2023-01-19T08:28:26.366Z,100567.19
2023-01-19T08:30:55.823Z,100574.94
2023-01-19T08:33:23.965Z,100573.22
2023-01-19T08:35:53.117Z,100577.50
2023-01-19T08:38:20.218Z,100581.75
2023-01-19T08:40:46.723Z,100582.63
2023-01-19T08:43:17.294Z,100585.09
2023-01-19T08:45:49.131Z,100591.00
2023-01-19T08:48:17.723Z,100596.97
2023-01-19T08:50:47.680Z,100597.69
2023-01-19T08:53:14.958Z,100590.75
2023-01-19T08:55:41.999Z,100603.47
2023-01-19T08:58:09.203Z,100595.75
2023-01-19T09:00:38.265Z,100604.22
2023-01-19T09:03:11.224Z,100604.13
2023-01-19T09:05:39.054Z,100602.38
2023-01-19T09:08:09.226Z,100606.69
2023-01-19T09:10:38.126Z,100606.63
2023-01-19T09:13:10.993Z,100616.78
2023-01-19T09:15:39.028Z,100612.41
2023-01-19T09:18:07.926Z,100612.25
2023-01-19T09:20:36.150Z,100613.88
2023-01-19T09:23:02.993Z,100614.59
2023-01-19T09:25:29.504Z,100617.09
2023-01-19T09:27:56.229Z,100613.56
2023-01-19T09:30:22.817Z,100615.22
2023-01-19T09:32:49.289Z,100617.78
2023-01-19T09:35:16.335Z,100623.75
2023-01-19T09:37:47.181Z,100626.34
2023-01-19T09:40:16.561Z,100624.66
2023-01-19T09:42:45.105Z,100629.69
2023-01-19T09:45:19.691Z,100625.34
2023-01-19T09:47:49.098Z,100626.97
2023-01-19T09:50:30.711Z,100631.09
2023-01-19T09:53:05.258Z,100630.09
2023-01-19T09:55:31.683Z,100641.97
2023-01-19T09:57:58.733Z,100632.34
2023-01-19T10:00:28.702Z,100636.50
2023-01-19T10:03:16.339Z,100633.78
2023-01-19T10:05:48.841Z,100643.94
2023-01-19T10:09:00.811Z,100647.19
2023-01-19T10:12:12.581Z,100647.84
2023-01-19T10:14:49.978Z,100649.47
2023-01-19T10:17:45.615Z,100652.72
2023-01-19T10:20:21.456Z,100656.06
2023-01-19T10:22:49.299Z,100655.09
2023-01-19T10:25:23.114Z,100654.09
2023-01-19T10:27:49.758Z,100665.00
2023-01-19T10:30:23.687Z,100668.41
2023-01-19T10:32:51.112Z,100666.53
2023-01-19T10:35:27.148Z,100668.13
2023-01-19T10:38:00.653Z,100664.53
2023-01-19T10:40:33.258Z,100666.97
2023-01-19T10:42:59.948Z,100667.78
2023-01-19T10:45:30.171Z,100669.41
2023-01-19T10:48:06.905Z,100668.34
2023-01-19T10:50:37.181Z,100673.47
2023-01-19T10:53:06.065Z,100675.03
2023-01-19T10:55:37.995Z,100663.66
2023-01-19T10:58:06.823Z,100664.34
2023-01-19T11:00:43.495Z,100664.19
2023-01-19T11:03:29.659Z,100665.81
2023-01-19T11:06:20.622Z,100665.69
2023-01-19T11:08:51.314Z,100670.84
2023-01-19T11:11:19.496Z,100674.06
2023-01-19T11:14:04.736Z,100675.53
2023-01-19T11:16:34.841Z,100675.38
2023-01-19T11:19:03.166Z,100676.13
2023-01-19T11:21:32.176Z,100674.31
2023-01-19T11:24:08.721Z,100662.41
2023-01-19T11:26:42.443Z,100671.03
2023-01-19T11:29:24.300Z,100678.78
2023-01-19T11:31:52.289Z,100679.53
2023-01-19T11:34:33.740Z,100675.44
2023-01-19T11:37:02.753Z,100679.78
2023-01-19T11:39:32.238Z,100681.63
2023-01-19T11:42:04.861Z,100679.09
2023-01-19T11:44:35.225Z,100676.53
2023-01-19T11:47:12.475Z,100682.47
2023-01-19T11:50:15.277Z,100680.69
2023-01-19T11:53:10.925Z,100675.31
2023-01-19T11:55:49.396Z,100672.53
2023-01-19T11:58:17.862Z,100671.63
2023-01-19T12:00:57.450Z,100675.16
2023-01-19T12:03:27.800Z,100677.78
2023-01-19T12:06:00.160Z,100678.72
2023-01-19T12:08:36.141Z,100671.63
2023-01-19T12:11:04.151Z,100674.88
2023-01-19T12:13:32.733Z,100676.63
2023-01-19T12:16:10.139Z,100678.38
2023-01-19T12:18:41.195Z,100693.06
2023-01-19T12:21:07.876Z,100687.19
2023-01-19T12:23:46.480Z,100685.53
2023-01-19T12:26:34.828Z,100686.28
2023-01-19T12:29:11.546Z,100672.44
2023-01-19T12:31:40.578Z,100679.47
2023-01-19T12:34:31.266Z,100677.22
2023-01-19T12:37:03.792Z,100680.94
2023-01-19T12:39:32.086Z,100687.78
2023-01-19T12:42:12.849Z,100685.75
2023-01-19T12:44:39.973Z,100696.72
2023-01-19T12:47:15.205Z,100692.19
2023-01-19T12:49:48.939Z,100688.59
2023-01-19T12:52:51.371Z,100681.59
2023-01-19T12:55:23.147Z,100686.75
2023-01-19T12:57:56.915Z,100685.91
2023-01-19T13:00:23.308Z,100695.78
2023-01-19T13:03:05.184Z,100688.41
2023-01-19T13:05:32.859Z,100689.84
2023-01-19T13:08:02.819Z,100683.03
2023-01-19T13:10:54.264Z,100693.41
2023-01-19T13:13:23.843Z,100694.25
2023-01-19T13:15:51.243Z,100693.50
2023-01-19T13:18:34.052Z,100699.31
2023-01-19T13:21:04.786Z,100693.75
2023-01-19T13:23:52.439Z,100690.13
2023-01-19T13:26:22.002Z,100684.97
2023-01-19T13:28:53.647Z,100698.09
2023-01-19T13:31:20.993Z,100708.69
2023-01-19T13:34:01.492Z,100699.41
2023-01-19T13:36:34.269Z,100706.34
2023-01-19T13:39:04.771Z,100708.25
2023-01-19T13:41:36.224Z,100706.66
2023-01-19T13:44:27.664Z,100707.69
2023-01-19T13:46:56.559Z,100713.75
2023-01-19T13:49:31.969Z,100710.41
2023-01-19T13:52:12.793Z,100714.84
2023-01-19T13:54:56.983Z,100719.28
2023-01-19T13:57:47.463Z,100719.38
2023-01-19T14:00:20.511Z,100728.09
2023-01-19T14:02:53.513Z,100719.63
2023-01-19T14:05:34.047Z,100725.84
2023-01-19T14:08:13.014Z,100729.44
2023-01-19T14:10:45.911Z,100733.91
2023-01-19T14:13:18.512Z,100737.47
2023-01-19T14:15:46.617Z,100738.41
2023-01-19T14:18:18.979Z,100738.50
2023-01-19T14:20:57.734Z,100749.72
2023-01-19T14:23:52.096Z,100742.19
2023-01-19T14:26:37.609Z,100747.44
2023-01-19T14:29:34.310Z,100747.53
2023-01-19T14:32:00.680Z,100747.59
2023-01-19T14:34:54.091Z,100747.69
2023-01-19T14:37:26.605Z,100746.84
2023-01-19T14:40:08.085Z,100753.72
2023-01-19T14:42:45.332Z,100755.53
2023-01-19T14:45:17.208Z,100753.84
2023-01-19T14:47:46.896Z,100757.34
2023-01-19T14:50:19.749Z,100753.13
2023-01-19T14:52:52.753Z,100759.19
2023-01-19T14:55:28.115Z,100757.53
2023-01-19T14:57:55.216Z,100751.59
2023-01-19T15:00:22.093Z,100748.22
2023-01-19T15:02:48.601Z,100759.44
2023-01-19T15:05:15.449Z,100752.59
2023-01-19T15:07:44.632Z,100752.59
2023-01-19T15:10:15.499Z,100757.81
2023-01-19T15:12:42.156Z,100757.88
2023-01-19T15:15:30.291Z,100760.50
2023-01-19T15:17:58.940Z,100757.13
2023-01-19T15:20:25.389Z,100753.75
2023-01-19T15:22:51.891Z,100764.16
2023-01-19T15:25:21.716Z,100762.53
2023-01-19T15:27:48.894Z,100768.56
2023-01-19T15:30:18.277Z,100776.38
2023-01-19T15:32:45.001Z,100785.00
2023-01-19T15:35:15.824Z,100786.03
2023-01-19T15:37:42.316Z,100791.41
2023-01-19T15:40:09.595Z,100794.09
2023-01-19T15:42:36.082Z,100793.28
2023-01-19T15:45:02.656Z,100795.13
2023-01-19T15:47:29.127Z,100804.66
2023-01-19T15:49:55.553Z,100802.22
2023-01-19T15:52:22.095Z,100801.50
2023-01-19T15:54:48.592Z,100794.75
2023-01-19T15:57:14.994Z,100802.53
2023-01-19T15:59:41.448Z,100815.53
2023-01-19T16:02:09.707Z,100810.50
2023-01-19T16:04:36.171Z,100820.03
2023-01-19T16:07:02.619Z,100811.59
2023-01-19T16:09:29.231Z,100812.56
2023-01-19T16:11:57.185Z,100815.25
2023-01-19T16:14:23.668Z,100807.72
2023-01-19T16:16:50.213Z,100815.53
2023-01-19T16:19:16.849Z,100818.16
2023-01-19T16:21:44.295Z,100820.00
2023-01-19T16:24:10.816Z,100826.94
2023-01-19T16:26:37.331Z,100833.03
2023-01-19T16:29:08.751Z,100834.03
2023-01-19T16:31:36.438Z,100831.56
2023-01-19T16:34:02.937Z,100840.22
2023-01-19T16:36:32.281Z,100842.06
2023-01-19T16:39:00.326Z,100843.00
2023-01-19T16:41:26.941Z,100851.63
2023-01-19T16:43:54.852Z,100857.72
2023-01-19T16:46:24.301Z,100853.53
2023-01-19T16:48:52.097Z,100851.84
2023-01-19T16:51:19.577Z,100859.59
2023-01-19T16:53:46.100Z,100861.38
2023-01-19T16:56:14.374Z,100864.81
2023-01-19T16:58:41.551Z,100859.78
2023-01-19T17:01:20.002Z,100864.16
2023-01-19T17:03:47.184Z,100873.69
2023-01-19T17:06:18.234Z,100876.28
2023-01-19T17:08:44.741Z,100878.06
2023-01-19T17:11:20.546Z,100877.31
2023-01-19T17:13:48.610Z,100883.38
2023-01-19T17:16:15.650Z,100884.34
2023-01-19T17:18:42.230Z,100889.50
2023-01-19T17:21:10.031Z,100889.56
2023-01-19T17:23:37.728Z,100889.63
2023-01-19T17:26:04.973Z,100897.38
2023-01-19T17:28:31.548Z,100897.41
2023-01-19T17:31:11.512Z,100900.00
2023-01-19T17:33:39.247Z,100906.91
2023-01-19T17:36:08.922Z,100905.25
2023-01-19T17:38:36.389Z,100903.53
2023-01-19T17:41:11.264Z,100905.28
2023-01-19T17:43:37.649Z,100907.00
2023-01-19T17:46:04.186Z,100906.16
2023-01-19T17:48:30.685Z,100899.34
2023-01-19T17:51:05.645Z,100914.72
2023-01-19T17:53:33.411Z,100898.53
2023-01-19T17:56:08.835Z,100907.09
2023-01-19T17:58:35.498Z,100909.69
2023-01-19T18:01:19.894Z,100908.88
2023-01-19T18:03:46.918Z,100908.88
2023-01-19T18:06:14.340Z,100909.69
2023-01-19T18:08:42.929Z,100912.25
2023-01-19T18:11:10.515Z,100917.38
2023-01-19T18:13:37.437Z,100919.13
2023-01-19T18:18:41.738Z,100921.75
2023-01-19T18:21:09.990Z,100922.63
2023-01-19T18:23:36.835Z,100929.47
2023-01-19T18:26:09.770Z,100927.75
2023-01-19T18:28:36.540Z,100924.31
2023-01-19T18:31:07.698Z,100932.00
2023-01-19T18:33:34.504Z,100939.69
2023-01-19T18:36:01.107Z,100939.66
2023-01-19T18:38:27.860Z,100943.03
2023-01-19T18:41:06.322Z,100940.50
2023-01-19T18:43:33.204Z,100940.50
2023-01-19T18:46:00.133Z,100944.78
2023-01-19T18:48:26.884Z,100946.50
2023-01-19T18:50:53.799Z,100939.66
2023-01-19T18:53:20.428Z,100942.22
2023-01-19T18:55:55.327Z,100943.06
2023-01-19T18:58:22.799Z,100942.22
2023-01-19T19:00:49.916Z,100938.78
2023-01-19T19:03:17.198Z,100942.22
2023-01-19T19:05:43.721Z,100946.50
2023-01-19T19:08:10.285Z,100949.06
2023-01-19T19:10:36.952Z,100950.72
2023-01-19T19:13:03.493Z,100950.72
2023-01-19T19:15:32.395Z,100948.13
2023-01-19T19:17:59.568Z,100960.94
2023-01-19T19:20:26.497Z,100972.91
2023-01-19T19:22:53.011Z,100980.53
2023-01-19T19:25:19.455Z,100980.53
2023-01-19T19:27:50.521Z,100978.78
2023-01-19T19:30:17.486Z,100980.44
2023-01-19T19:32:44.076Z,100987.28
2023-01-19T19:35:12.415Z,100994.06
2023-01-19T19:37:38.809Z,100999.19
2023-01-19T19:40:05.655Z,101000.81
2023-01-19T19:42:32.110Z,101001.66
2023-01-19T19:44:58.506Z,101006.75
2023-01-19T19:47:25.024Z,101008.44
2023-01-19T19:49:51.543Z,101010.97
2023-01-19T19:52:17.979Z,101007.50
2023-01-19T19:54:45.176Z,101020.28
2023-01-19T19:57:12.047Z,101024.56
2023-01-19T19:59:38.621Z,101022.00
2023-01-19T20:02:05.392Z,101024.53
2023-01-19T20:06:11.720Z,101026.34
2023-01-19T20:08:13.030Z,101020.41
2023-01-19T20:10:39.681Z,101017.84
2023-01-19T20:13:09.138Z,101026.41
2023-01-19T20:15:39.354Z,101028.94
2023-01-19T20:18:06.510Z,101030.66
2023-01-19T20:20:33.861Z,101026.41
2023-01-19T20:23:04.053Z,101033.28
2023-01-19T20:25:30.535Z,101044.41
2023-01-19T20:27:59.099Z,101044.44
2023-01-19T20:30:26.720Z,101051.28
2023-01-19T20:32:53.118Z,101053.00
2023-01-19T20:35:19.578Z,101069.19
2023-01-19T20:37:46.096Z,101068.38
2023-01-19T20:40:12.881Z,101067.56
2023-01-19T20:42:41.341Z,101068.41
2023-01-19T20:45:08.498Z,101069.28
2023-01-19T20:47:34.943Z,101075.28
2023-01-19T20:50:01.421Z,101081.25
2023-01-19T20:52:28.092Z,101083.81
2023-01-19T20:54:54.818Z,101082.97
2023-01-19T20:57:21.301Z,101089.84
2023-01-19T20:59:47.784Z,101082.97
2023-01-19T21:02:16.019Z,101092.38
2023-01-19T21:04:42.924Z,101086.41
2023-01-19T21:07:09.746Z,101090.69
2023-01-19T21:09:37.505Z,101087.28
2023-01-19T21:12:04.108Z,101083.88
2023-01-19T21:14:30.579Z,101082.19
2023-01-19T21:16:58.447Z,101084.75
2023-01-19T21:19:25.407Z,101080.50
2023-01-19T21:21:51.826Z,101076.25
2023-01-19T21:24:18.391Z,101083.94
2023-01-19T21:26:44.987Z,101093.38
2023-01-19T21:29:13.325Z,101098.50
2023-01-19T21:31:40.845Z,101104.53
2023-01-19T21:34:07.478Z,101104.56
2023-01-19T21:37:25.696Z,101102.91
2023-01-19T21:39:52.141Z,101108.94
2023-01-19T21:42:23.916Z,101102.97
2023-01-19T21:44:53.367Z,101108.13
2023-01-19T21:47:19.882Z,101103.88
2023-01-19T21:49:46.624Z,101105.63
2023-01-19T21:52:13.148Z,101106.47
2023-01-19T21:54:39.606Z,101106.47
2023-01-19T21:57:06.020Z,101104.84
2023-01-19T21:59:32.431Z,101116.81
2023-01-19T22:01:59.005Z,101117.66
2023-01-19T22:04:25.689Z,101120.25
2023-01-19T22:06:52.174Z,101121.13
2023-01-19T22:09:18.600Z,101129.66
2023-01-19T22:11:45.057Z,101130.56
2023-01-19T22:14:11.499Z,101130.56
2023-01-19T22:16:37.949Z,101145.94
2023-01-19T22:19:07.281Z,101150.19
2023-01-19T22:21:35.718Z,101153.59
2023-01-19T22:24:04.530Z,101160.41
2023-01-19T22:26:31.849Z,101156.13
2023-01-19T22:29:01.113Z,101166.38
2023-01-19T22:31:28.927Z,101168.91
2023-01-19T22:33:56.320Z,101165.50
2023-01-19T22:36:24.503Z,101168.09
2023-01-19T22:38:55.140Z,101171.50
2023-01-19T22:41:22.845Z,101174.91
2023-01-19T22:43:50.887Z,101173.19
2023-01-19T22:46:19.290Z,101168.91
2023-01-19T22:48:47.556Z,101168.91
2023-01-19T22:51:14.300Z,101162.09
2023-01-19T22:53:41.074Z,101165.47
2023-01-19T22:56:12.722Z,101171.44
2023-01-19T22:58:44.220Z,101160.34
2023-01-19T23:01:14.106Z,101178.28
2023-01-19T23:03:41.061Z,101179.16
2023-01-19T23:06:11.017Z,101180.88
2023-01-19T23:08:38.230Z,101174.94
2023-01-19T23:11:11.162Z,101178.34
2023-01-19T23:13:37.970Z,101179.22
2023-01-19T23:16:05.376Z,101173.25
2023-01-19T23:18:32.575Z,101174.09
2023-01-19T23:21:07.850Z,101174.09
2023-01-19T23:23:34.962Z,101168.13
2023-01-19T23:26:12.301Z,101170.69
2023-01-19T23:28:39.511Z,101179.25
2023-01-19T23:31:25.787Z,101169.84
2023-01-19T23:33:55.627Z,101168.16
2023-01-19T23:36:23.909Z,101170.72
2023-01-19T23:38:53.483Z,101171.56
2023-01-19T23:41:20.749Z,101170.72
2023-01-19T23:43:47.479Z,101171.63
2023-01-19T23:46:15.408Z,101183.59
2023-01-19T23:48:42.333Z,101185.31
2023-01-19T23:51:12.406Z,101185.34
2023-01-19T23:53:39.025Z,101176.81
2023-01-19T23:56:25.886Z,101175.97
2023-01-19T23:58:58.334Z,101179.41
